Time;durP1;ratioP1;P1;durP2;ratioP2;P2;SDS_P1;SDS_P2;PMS_P1;PMS_P2;Temp;Humidity;BMP_temperature;BMP_pressure;BME280_temperature;BME280_humidity;BME280_pressure;Samples;Min_cycle;Max_cycle;Signal;HPM_P1;HPM_P2
2021/08/03 00:00:23;;;;;;;12.68;5.38;;;11.50;97.70;;;;;;5086738;28;20038;-67
2021/08/03 00:02:51;;;;;;;13.70;5.18;;;11.50;97.80;;;;;;5086566;28;20396;-67
2021/08/03 00:05:20;;;;;;;13.82;5.32;;;11.40;97.80;;;;;;5087967;28;20431;-67
2021/08/03 00:07:49;;;;;;;13.15;5.32;;;11.40;97.80;;;;;;5088280;28;20513;-67
2021/08/03 00:10:18;;;;;;;16.60;5.90;;;11.40;97.90;;;;;;5090877;28;20016;-66
2021/08/03 00:12:53;;;;;;;13.45;5.68;;;11.40;97.80;;;;;;5089304;28;20020;-67
2021/08/03 00:15:23;;;;;;;14.40;5.95;;;11.30;97.80;;;;;;5090411;28;20510;-67
2021/08/03 00:17:53;;;;;;;16.05;6.00;;;11.30;97.90;;;;;;5089702;28;20039;-67
2021/08/03 00:20:20;;;;;;;14.00;5.45;;;11.30;98.00;;;;;;5089368;28;20036;-67
2021/08/03 00:22:46;;;;;;;16.23;5.90;;;11.40;98.00;;;;;;5087601;28;20369;-67
2021/08/03 00:25:12;;;;;;;13.35;5.70;;;11.30;97.90;;;;;;5088632;28;20043;-69
2021/08/03 00:27:39;;;;;;;12.65;5.97;;;11.30;97.90;;;;;;5088653;28;20035;-67
2021/08/03 00:30:06;;;;;;;18.85;6.05;;;11.40;98.00;;;;;;5088799;28;20117;-67
2021/08/03 00:32:32;;;;;;;16.67;6.43;;;11.30;97.90;;;;;;5087887;28;20066;-67
2021/08/03 00:34:58;;;;;;;16.17;6.50;;;11.30;97.90;;;;;;5088761;28;20435;-67
2021/08/03 00:37:23;;;;;;;19.83;6.78;;;11.40;98.00;;;;;;5089673;28;20569;-67
2021/08/03 00:39:49;;;;;;;14.07;6.25;;;11.50;98.00;;;;;;5088890;28;20028;-67
2021/08/03 00:42:15;;;;;;;16.77;6.53;;;11.50;98.10;;;;;;5089207;28;20024;-67
2021/08/03 00:44:40;;;;;;;15.48;6.40;;;11.60;98.10;;;;;;5089906;28;20028;-67
2021/08/03 00:47:06;;;;;;;16.77;6.65;;;11.70;98.10;;;;;;5088685;28;20147;-67
2021/08/03 00:49:32;;;;;;;18.60;6.43;;;11.80;98.10;;;;;;5088377;28;20043;-67
2021/08/03 00:51:58;;;;;;;17.60;5.80;;;11.80;98.10;;;;;;5088499;28;20132;-68
2021/08/03 00:54:24;;;;;;;16.00;6.53;;;11.90;98.00;;;;;;5090037;28;20427;-67
2021/08/03 00:56:49;;;;;;;13.43;6.25;;;11.90;98.00;;;;;;5087092;28;20024;-67
2021/08/03 00:59:15;;;;;;;13.40;4.93;;;12.00;98.10;;;;;;5085295;28;20024;-67
2021/08/03 01:01:40;;;;;;;16.67;6.32;;;12.10;97.90;;;;;;5088975;28;20104;-67
2021/08/03 01:04:09;;;;;;;11.00;4.55;;;12.10;97.80;;;;;;5088469;28;20024;-67
2021/08/03 01:07:01;;;;;;;10.45;5.28;;;12.10;97.80;;;;;;5090485;28;20470;-67
2021/08/03 01:09:32;;;;;;;14.15;4.95;;;12.10;97.70;;;;;;5084944;28;20437;-67
2021/08/03 01:12:18;;;;;;;11.50;4.72;;;12.20;97.70;;;;;;5086886;28;20055;-67
2021/08/03 01:14:58;;;;;;;11.15;4.82;;;12.20;97.50;;;;;;5083908;28;20040;-67
2021/08/03 01:17:31;;;;;;;8.63;4.03;;;12.20;97.50;;;;;;5085515;28;20028;-67
2021/08/03 01:20:21;;;;;;;12.45;4.88;;;12.20;97.40;;;;;;5089278;28;20123;-67
2021/08/03 01:23:15;;;;;;;10.27;4.28;;;12.20;97.40;;;;;;5087365;28;20024;-67
2021/08/03 01:26:18;;;;;;;10.05;4.32;;;12.20;97.40;;;;;;5087037;28;20032;-67
2021/08/03 01:28:51;;;;;;;11.05;4.82;;;12.20;97.40;;;;;;5069283;28;20020;-67
2021/08/03 01:31:23;;;;;;;12.98;4.95;;;12.20;97.40;;;;;;5086921;28;20024;-67
2021/08/03 01:33:54;;;;;;;7.30;3.97;;;12.20;97.40;;;;;;5087617;28;20245;-67
2021/08/03 01:36:20;;;;;;;10.30;4.90;;;12.20;97.40;;;;;;5086856;28;20024;-67
2021/08/03 01:38:48;;;;;;;8.35;3.95;;;12.10;97.30;;;;;;5087870;28;20028;-67
2021/08/03 01:41:17;;;;;;;8.73;4.85;;;12.10;97.50;;;;;;5088361;28;20125;-67
2021/08/03 01:43:46;;;;;;;11.55;4.45;;;12.10;97.50;;;;;;5088547;28;20043;-67
2021/08/03 01:46:15;;;;;;;9.45;4.43;;;12.10;97.60;;;;;;5086829;28;20051;-67
2021/08/03 01:48:44;;;;;;;8.13;4.07;;;12.10;97.50;;;;;;5087591;28;20023;-68
2021/08/03 01:51:09;;;;;;;11.43;4.40;;;12.10;97.50;;;;;;5086763;28;20496;-67
2021/08/03 01:53:36;;;;;;;7.22;3.97;;;12.10;97.50;;;;;;5087133;28;20020;-67
2021/08/03 01:56:02;;;;;;;7.30;4.10;;;12.10;97.50;;;;;;5085892;28;20031;-68
2021/08/03 01:58:29;;;;;;;10.95;4.15;;;12.00;97.50;;;;;;5084431;28;20058;-67
2021/08/03 02:00:57;;;;;;;8.75;4.05;;;12.00;97.50;;;;;;5086775;28;20118;-67
2021/08/03 02:03:25;;;;;;;8.48;4.20;;;12.00;97.50;;;;;;5085410;28;20028;-67
2021/08/03 02:05:52;;;;;;;8.98;3.72;;;12.00;97.50;;;;;;5087490;28;20081;-67
2021/08/03 02:08:19;;;;;;;11.80;4.20;;;12.00;97.70;;;;;;5085089;28;20115;-67
2021/08/03 02:10:47;;;;;;;8.60;4.57;;;12.00;97.50;;;;;;5087477;28;20507;-67
2021/08/03 02:13:14;;;;;;;7.65;3.90;;;12.00;97.50;;;;;;5083461;28;20060;-68
2021/08/03 02:15:40;;;;;;;7.68;4.30;;;11.90;97.50;;;;;;5087708;28;20472;-67
2021/08/03 02:18:06;;;;;;;10.43;3.97;;;11.80;97.40;;;;;;5086949;28;20046;-67
2021/08/03 02:20:32;;;;;;;7.57;3.97;;;11.70;97.30;;;;;;5087890;28;20051;-67
2021/08/03 02:22:57;;;;;;;13.73;4.30;;;11.60;97.00;;;;;;5086620;28;20448;-67
2021/08/03 02:25:23;;;;;;;15.32;4.70;;;11.50;97.30;;;;;;5088090;28;20032;-67
2021/08/03 02:27:49;;;;;;;8.77;4.38;;;11.50;97.50;;;;;;5084018;28;20043;-66
2021/08/03 02:30:15;;;;;;;10.60;4.07;;;11.40;97.50;;;;;;5086464;28;20027;-66
2021/08/03 02:32:49;;;;;;;10.52;4.38;;;11.30;97.50;;;;;;5083668;28;20270;-67
2021/08/03 02:35:19;;;;;;;9.77;4.38;;;11.20;97.50;;;;;;5085367;28;20026;-69
2021/08/03 02:37:52;;;;;;;11.05;4.78;;;11.20;97.50;;;;;;5088022;28;20111;-67
2021/08/03 02:40:19;;;;;;;12.07;4.65;;;11.10;97.60;;;;;;5086640;28;20052;-67
2021/08/03 02:42:45;;;;;;;11.68;5.30;;;11.10;97.70;;;;;;5086872;28;20122;-67
2021/08/03 02:45:15;;;;;;;10.77;5.00;;;11.00;97.70;;;;;;5088126;28;20030;-67
2021/08/03 02:47:51;;;;;;;12.25;5.70;;;11.00;97.70;;;;;;5087229;28;20038;-66
2021/08/03 02:50:18;;;;;;;15.30;5.90;;;11.00;97.90;;;;;;5088111;28;20044;-66
2021/08/03 02:52:48;;;;;;;14.30;5.22;;;11.10;98.00;;;;;;5086602;28;20020;-66
2021/08/03 02:55:19;;;;;;;14.70;5.75;;;11.10;98.10;;;;;;5086505;28;20031;-67
2021/08/03 02:57:47;;;;;;;;;;;11.10;98.10;;;;;;5067401;28;20015;-67
2021/08/03 03:00:13;;;;;;;12.00;5.80;;;11.00;98.10;;;;;;5087331;28;20320;-66
2021/08/03 03:02:43;;;;;;;14.70;5.90;;;11.00;98.20;;;;;;5087084;28;20027;-67
2021/08/03 03:05:23;;;;;;;14.80;6.20;;;11.00;98.30;;;;;;5086961;28;20522;-67
2021/08/03 03:07:54;;;;;;;13.63;5.67;;;11.00;98.10;;;;;;5086704;28;20035;-67
2021/08/03 03:10:25;;;;;;;13.95;5.78;;;10.90;98.10;;;;;;5087880;28;20046;-67
2021/08/03 03:12:59;;;;;;;;;;;10.80;98.00;;;;;;5086389;28;20483;-67
2021/08/03 03:15:26;;;;;;;14.27;5.13;;;10.80;97.90;;;;;;5084324;28;19912;-67
2021/08/03 03:17:52;;;;;;;15.85;5.78;;;10.80;97.80;;;;;;5085709;28;20085;-67
2021/08/03 03:20:19;;;;;;;37.08;6.28;;;10.80;98.00;;;;;;5086535;28;20089;-67
2021/08/03 03:22:47;;;;;;;13.70;5.32;;;10.80;98.00;;;;;;5086742;28;20032;-71
2021/08/03 03:25:18;;;;;;;11.30;5.28;;;10.70;98.00;;;;;;5087318;28;20036;-67
2021/08/03 03:27:48;;;;;;;12.73;5.53;;;10.60;97.90;;;;;;5085180;28;20034;-67
2021/08/03 03:30:15;;;;;;;11.95;6.03;;;10.60;98.00;;;;;;5085821;28;20407;-66
2021/08/03 03:32:43;;;;;;;19.63;6.20;;;10.60;98.20;;;;;;5086305;28;20020;-67
2021/08/03 03:35:09;;;;;;;17.15;6.20;;;10.60;98.10;;;;;;5086277;28;20549;-67
2021/08/03 03:37:35;;;;;;;18.08;6.60;;;10.50;98.10;;;;;;5085766;28;20040;-67
2021/08/03 03:40:01;;;;;;;16.58;6.38;;;10.50;98.20;;;;;;5087516;28;21671;-67
2021/08/03 03:42:32;;;;;;;20.20;7.57;;;10.60;98.40;;;;;;5090097;28;20039;-67
2021/08/03 03:44:59;;;;;;;;;;;10.70;98.40;;;;;;5091111;28;20064;-67
2021/08/03 03:47:29;;;;;;;20.83;7.43;;;10.80;98.60;;;;;;5084917;28;19916;-67
2021/08/03 03:50:27;;;;;;;23.43;8.47;;;10.90;98.50;;;;;;5091020;28;20272;-66
2021/08/03 03:52:58;;;;;;;23.70;8.60;;;10.90;98.60;;;;;;5070159;28;20282;-67
2021/08/03 03:55:23;;;;;;;19.60;8.95;;;11.00;98.60;;;;;;5091363;28;20028;-67
2021/08/03 03:57:50;;;;;;;21.80;9.82;;;11.00;98.60;;;;;;5086777;28;20062;-67
2021/08/03 04:00:18;;;;;;;25.25;9.23;;;11.00;98.70;;;;;;5089880;28;20470;-67
2021/08/03 04:02:45;;;;;;;26.90;9.82;;;11.00;98.60;;;;;;5089882;28;20146;-67
2021/08/03 04:05:15;;;;;;;23.75;9.40;;;11.10;98.70;;;;;;5087176;28;20457;-67
2021/08/03 04:07:49;;;;;;;24.77;9.98;;;11.10;98.60;;;;;;5088770;28;20032;-67
2021/08/03 04:10:17;;;;;;;24.27;8.38;;;11.10;98.60;;;;;;5090435;28;20085;-67
2021/08/03 04:12:43;;;;;;;17.42;8.43;;;11.20;98.60;;;;;;5089292;28;20023;-67
2021/08/03 04:15:09;;;;;;;20.52;8.25;;;11.30;98.60;;;;;;5090041;28;20024;-67
2021/08/03 04:17:35;;;;;;;15.68;7.28;;;11.30;98.50;;;;;;5090521;28;20040;-67
2021/08/03 04:20:01;;;;;;;16.13;7.30;;;11.30;98.50;;;;;;5089959;28;20055;-66
2021/08/03 04:22:27;;;;;;;20.42;7.45;;;11.40;98.50;;;;;;5087692;28;20103;-66
2021/08/03 04:24:53;;;;;;;15.00;7.30;;;11.50;98.40;;;;;;5090314;28;20028;-66
2021/08/03 04:27:18;;;;;;;12.63;6.95;;;11.50;98.30;;;;;;5089162;28;20032;-67
2021/08/03 04:29:44;;;;;;;18.70;6.72;;;11.60;98.20;;;;;;5089274;28;20366;-66
2021/08/03 04:32:10;;;;;;;12.30;6.65;;;11.60;98.10;;;;;;5086760;28;20030;-67
2021/08/03 04:34:36;;;;;;;10.68;5.93;;;11.60;98.00;;;;;;5088916;28;20408;-66
2021/08/03 04:37:02;;;;;;;12.65;6.10;;;11.60;98.00;;;;;;5088875;28;20391;-67
2021/08/03 04:39:28;;;;;;;12.63;6.95;;;11.70;98.00;;;;;;5090365;28;20024;-66
2021/08/03 04:41:55;;;;;;;14.25;7.10;;;11.70;97.90;;;;;;5089022;28;20111;-67
2021/08/03 04:44:20;;;;;;;12.77;5.97;;;11.70;97.80;;;;;;5089756;28;20380;-67
2021/08/03 04:46:46;;;;;;;15.48;6.28;;;11.80;97.80;;;;;;5088753;28;20035;-67
2021/08/03 04:49:11;;;;;;;11.25;6.32;;;11.80;97.80;;;;;;5088514;28;20637;-66
2021/08/03 04:51:37;;;;;;;12.55;5.43;;;11.90;97.90;;;;;;5087511;28;20032;-67
2021/08/03 04:54:03;;;;;;;12.13;5.35;;;11.90;97.70;;;;;;5088117;28;20035;-67
2021/08/03 04:56:29;;;;;;;10.60;5.25;;;12.00;97.50;;;;;;5069571;28;20483;-69
2021/08/03 04:58:55;;;;;;;10.52;5.28;;;12.10;97.60;;;;;;5088356;28;20036;-67
2021/08/03 05:01:21;;;;;;;7.78;4.53;;;12.10;97.40;;;;;;5086909;28;20027;-67
2021/08/03 05:03:46;;;;;;;8.25;4.22;;;12.10;97.20;;;;;;5089232;28;20028;-67
2021/08/03 05:06:12;;;;;;;13.82;4.43;;;12.20;97.10;;;;;;5088968;28;20035;-67
2021/08/03 05:08:37;;;;;;;8.18;4.57;;;12.20;96.90;;;;;;5086630;28;20024;-67
2021/08/03 05:11:03;;;;;;;8.07;4.15;;;12.20;96.80;;;;;;5088834;28;20063;-66
2021/08/03 05:13:28;;;;;;;10.07;4.40;;;12.40;96.80;;;;;;5087904;28;20032;-67
2021/08/03 05:15:54;;;;;;;9.43;4.82;;;12.40;96.70;;;;;;5088169;28;20475;-66
2021/08/03 05:18:20;;;;;;;6.05;3.92;;;12.50;96.60;;;;;;5087612;28;20032;-66
2021/08/03 05:20:45;;;;;;;9.85;3.95;;;12.50;96.50;;;;;;5088015;28;20082;-67
2021/08/03 05:23:12;;;;;;;9.35;3.95;;;12.60;96.50;;;;;;5088196;28;20392;-67
2021/08/03 05:25:37;;;;;;;8.35;4.43;;;12.60;96.40;;;;;;5089121;28;20414;-67
2021/08/03 05:28:03;;;;;;;11.02;4.50;;;12.70;96.30;;;;;;5086206;28;20032;-67
2021/08/03 05:30:29;;;;;;;8.63;4.03;;;12.70;96.20;;;;;;5085527;28;20031;-67
2021/08/03 05:32:54;;;;;;;7.32;4.35;;;12.80;96.10;;;;;;5087602;28;20414;-67
2021/08/03 05:35:20;;;;;;;7.45;3.70;;;12.90;96.20;;;;;;5088310;28;20498;-67
2021/08/03 05:37:45;;;;;;;6.82;3.78;;;12.80;95.70;;;;;;5089104;28;20028;-67
2021/08/03 05:40:12;;;;;;;6.57;3.45;;;12.90;95.80;;;;;;5088667;28;20028;-67
2021/08/03 05:42:39;;;;;;;7.68;4.00;;;12.80;95.20;;;;;;5086946;28;20036;-67
2021/08/03 05:45:05;;;;;;;6.43;3.88;;;13.00;95.50;;;;;;5088900;28;20043;-67
2021/08/03 05:47:31;;;;;;;7.70;3.55;;;13.00;95.20;;;;;;5084272;28;20600;-67
2021/08/03 05:49:57;;;;;;;8.57;4.30;;;13.10;95.10;;;;;;5088471;28;20185;-67
2021/08/03 05:52:23;;;;;;;6.75;3.42;;;13.10;95.10;;;;;;5087665;28;20403;-67
2021/08/03 05:54:48;;;;;;;7.63;3.60;;;13.20;95.20;;;;;;5088069;28;20023;-67
2021/08/03 05:57:14;;;;;;;7.22;4.03;;;13.30;95.00;;;;;;5081933;28;20020;-67
2021/08/03 05:59:39;;;;;;;5.82;3.38;;;13.30;94.90;;;;;;5087885;28;20384;-67
2021/08/03 06:02:05;;;;;;;8.13;3.85;;;13.20;94.80;;;;;;5080642;28;20032;-67
2021/08/03 06:04:31;;;;;;;5.57;3.38;;;13.30;94.60;;;;;;5086805;28;20017;-67
2021/08/03 06:06:57;;;;;;;6.72;3.72;;;13.30;94.60;;;;;;5085081;28;20407;-67
2021/08/03 06:09:25;;;;;;;5.35;3.90;;;13.20;94.60;;;;;;5086236;28;20107;-67
2021/08/03 06:11:53;;;;;;;9.98;3.88;;;13.30;94.90;;;;;;5086793;28;20039;-67
2021/08/03 06:14:28;;;;;;;6.22;3.85;;;13.40;95.00;;;;;;5085399;28;20028;-67
2021/08/03 06:16:55;;;;;;;6.68;3.72;;;13.40;95.20;;;;;;5084392;28;20028;-67
2021/08/03 06:19:25;;;;;;;7.07;3.38;;;13.50;95.10;;;;;;5088104;28;20028;-67
2021/08/03 06:21:51;;;;;;;8.25;3.65;;;13.50;94.80;;;;;;5080783;28;21031;-67
2021/08/03 06:24:17;;;;;;;6.45;3.60;;;13.40;94.60;;;;;;5087269;28;20048;-67
2021/08/03 06:26:45;;;;;;;6.03;3.35;;;13.50;94.90;;;;;;5086715;28;20028;-67
2021/08/03 06:29:12;;;;;;;5.90;3.45;;;13.50;94.70;;;;;;5085834;28;20089;-69
2021/08/03 06:31:38;;;;;;;8.30;3.50;;;13.70;94.50;;;;;;5082846;28;20024;-67
2021/08/03 06:34:05;;;;;;;9.30;3.72;;;13.80;94.40;;;;;;5085868;28;20039;-67
2021/08/03 06:36:31;;;;;;;6.07;3.45;;;14.00;94.30;;;;;;5081822;28;20017;-67
2021/08/03 06:38:56;;;;;;;7.70;3.97;;;14.20;94.10;;;;;;5086122;28;20421;-67
2021/08/03 06:41:38;;;;;;;5.55;3.28;;;14.30;93.80;;;;;;5087554;28;20044;-66
2021/08/03 06:44:20;;;;;;;4.68;2.78;;;14.50;93.40;;;;;;5084829;28;20236;-67
2021/08/03 06:46:51;;;;;;;6.75;2.95;;;14.60;92.60;;;;;;5086507;28;20050;-67
2021/08/03 06:49:18;;;;;;;7.53;2.92;;;14.90;92.10;;;;;;5082773;28;20028;-68
2021/08/03 06:51:44;;;;;;;7.63;2.90;;;15.10;92.70;;;;;;5087397;28;20024;-68
2021/08/03 06:54:11;;;;;;;7.95;2.60;;;15.30;92.00;;;;;;5087050;28;20035;-68
2021/08/03 06:56:51;;;;;;;4.32;2.17;;;15.40;90.20;;;;;;5084679;28;20557;-68
2021/08/03 06:59:22;;;;;;;3.63;2.15;;;15.50;90.00;;;;;;5081737;28;20175;-68
2021/08/03 07:02:05;;;;;;;4.40;1.98;;;15.60;88.30;;;;;;5082674;28;20042;-68
2021/08/03 07:04:45;;;;;;;4.93;1.50;;;15.60;88.00;;;;;;5083279;28;20024;-68
2021/08/03 07:07:11;;;;;;;4.27;1.50;;;15.60;86.70;;;;;;5084073;28;20220;-68
2021/08/03 07:09:43;;;;;;;5.55;1.60;;;15.90;87.30;;;;;;5086884;28;20951;-68
2021/08/03 07:12:13;;;;;;;2.72;1.38;;;16.00;85.90;;;;;;5085862;28;20020;-69
2021/08/03 07:14:40;;;;;;;3.65;1.60;;;16.00;87.00;;;;;;5084374;28;20066;-68
2021/08/03 07:17:08;;;;;;;3.92;1.50;;;16.00;87.30;;;;;;5089418;28;20651;-69
2021/08/03 07:19:35;;;;;;;3.17;1.52;;;16.10;86.30;;;;;;5072743;28;20492;-69
2021/08/03 07:22:01;;;;;;;4.60;1.90;;;16.30;86.20;;;;;;5088750;28;20484;-69
2021/08/03 07:24:29;;;;;;;4.25;1.42;;;16.40;85.70;;;;;;5090356;28;20042;-69
2021/08/03 07:26:54;;;;;;;4.47;1.40;;;16.50;85.20;;;;;;5090317;28;20538;-68
2021/08/03 07:29:20;;;;;;;3.20;1.52;;;16.60;83.60;;;;;;5089005;28;20024;-68
2021/08/03 07:31:47;;;;;;;3.67;1.30;;;16.70;84.10;;;;;;5089797;28;20031;-69
2021/08/03 07:34:12;;;;;;;3.58;1.13;;;16.80;83.80;;;;;;5088792;28;20031;-69
2021/08/03 07:36:38;;;;;;;1.75;1.25;;;16.90;83.70;;;;;;5089520;28;20027;-68
2021/08/03 07:39:06;;;;;;;2.58;1.20;;;16.90;82.70;;;;;;5090441;28;20951;-69
2021/08/03 07:41:35;;;;;;;3.33;1.27;;;17.20;83.50;;;;;;5089759;28;20040;-69
2021/08/03 07:44:02;;;;;;;3.55;1.50;;;17.30;80.40;;;;;;5086977;28;20146;-68
2021/08/03 07:46:31;;;;;;;2.70;1.30;;;17.40;80.90;;;;;;5086748;28;20477;-68
2021/08/03 07:48:58;;;;;;;2.22;1.13;;;17.50;79.70;;;;;;5087579;28;20488;-69
2021/08/03 07:51:25;;;;;;;1.25;0.75;;;17.50;79.60;;;;;;5087226;28;20027;-69
2021/08/03 07:53:50;;;;;;;1.98;0.75;;;17.60;79.80;;;;;;5086264;28;20024;-70
2021/08/03 07:56:17;;;;;;;1.60;0.75;;;17.70;77.50;;;;;;5086014;28;20042;-69
2021/08/03 07:58:43;;;;;;;3.13;0.93;;;17.80;76.40;;;;;;5086902;28;20548;-69
2021/08/03 08:01:09;;;;;;;1.80;1.00;;;17.90;75.00;;;;;;5086811;28;20171;-68
2021/08/03 08:03:36;;;;;;;2.03;0.90;;;18.10;76.00;;;;;;5086602;28;20111;-69
2021/08/03 08:06:04;;;;;;;3.38;0.90;;;17.70;75.70;;;;;;5086388;28;20560;-68
2021/08/03 08:08:30;;;;;;;2.30;0.90;;;17.40;78.20;;;;;;5088131;28;20484;-69
2021/08/03 08:10:56;;;;;;;0.80;0.80;;;17.00;79.10;;;;;;5087960;28;20491;-68
2021/08/03 08:13:21;;;;;;;1.48;0.73;;;17.30;78.70;;;;;;5088915;28;20024;-69
2021/08/03 08:15:47;;;;;;;1.98;0.93;;;17.70;77.80;;;;;;5086921;28;20094;-69
2021/08/03 08:18:13;;;;;;;2.65;1.17;;;18.10;76.30;;;;;;5087150;28;20138;-69
2021/08/03 08:20:41;;;;;;;1.98;0.75;;;18.70;76.10;;;;;;5081038;28;20614;-69
2021/08/03 08:23:08;;;;;;;2.90;0.93;;;18.60;74.20;;;;;;5086541;28;20081;-69
2021/08/03 08:25:34;;;;;;;3.22;0.73;;;18.30;74.70;;;;;;5068845;28;20028;-69
2021/08/03 08:28:00;;;;;;;2.50;0.98;;;17.90;74.60;;;;;;5085821;28;20024;-69
2021/08/03 08:30:26;;;;;;;2.25;0.57;;;17.90;75.90;;;;;;5085886;28;20062;-69
2021/08/03 08:32:51;;;;;;;2.15;0.60;;;17.90;73.70;;;;;;5082050;28;20020;-69
2021/08/03 08:35:17;;;;;;;1.60;0.60;;;18.10;75.40;;;;;;5090677;28;20101;-69
2021/08/03 08:37:43;;;;;;;1.00;0.63;;;18.30;74.80;;;;;;5088469;28;20031;-69
2021/08/03 08:40:10;;;;;;;1.42;0.47;;;18.70;75.00;;;;;;5050642;28;1091787;-70
2021/08/03 08:42:35;;;;;;;0.93;0.70;;;19.00;69.70;;;;;;5087641;28;20021;-69
2021/08/03 08:45:04;;;;;;;0.68;0.55;;;19.50;70.30;;;;;;5088676;28;20503;-69
2021/08/03 08:47:30;;;;;;;3.35;0.55;;;19.00;69.20;;;;;;5087752;28;20047;-69
2021/08/03 08:50:02;;;;;;;2.22;0.60;;;18.90;69.00;;;;;;5087471;28;20373;-69
2021/08/03 08:52:29;;;;;;;1.20;0.47;;;18.90;69.70;;;;;;5089110;28;20028;-69
2021/08/03 08:54:54;;;;;;;2.45;0.45;;;18.70;68.70;;;;;;5088012;28;20020;-69
2021/08/03 08:57:20;;;;;;;2.63;0.55;;;18.70;68.80;;;;;;5087422;28;20038;-69
2021/08/03 08:59:46;;;;;;;1.98;0.30;;;18.70;67.50;;;;;;5087159;28;20153;-69
2021/08/03 09:02:12;;;;;;;0.95;0.50;;;18.80;66.50;;;;;;5065800;28;20024;-69
2021/08/03 09:04:44;;;;;;;1.08;0.47;;;18.80;66.70;;;;;;5087820;28;20028;-69
2021/08/03 09:07:10;;;;;;;2.28;0.57;;;19.00;67.40;;;;;;5089271;28;20016;-69
2021/08/03 09:09:41;;;;;;;4.70;0.60;;;19.30;68.80;;;;;;5088647;28;20024;-69
2021/08/03 09:12:06;;;;;;;2.38;0.75;;;19.30;66.50;;;;;;5089069;28;20027;-69
2021/08/03 09:14:34;;;;;;;1.35;0.40;;;19.60;65.10;;;;;;5084116;28;20126;-70
2021/08/03 09:17:00;;;;;;;0.40;0.40;;;19.50;64.50;;;;;;5086230;28;20048;-70
2021/08/03 09:19:34;;;;;;;0.90;0.55;;;19.60;66.50;;;;;;5086971;28;20050;-70
2021/08/03 09:22:19;;;;;;;2.20;0.60;;;19.50;66.00;;;;;;5083751;28;20032;-69
2021/08/03 09:25:07;;;;;;;2.33;0.60;;;19.70;68.30;;;;;;5082240;28;20030;-69
2021/08/03 09:27:43;;;;;;;2.90;0.60;;;19.50;65.10;;;;;;5076290;28;20047;-69
2021/08/03 09:30:17;;;;;;;0.93;0.40;;;19.50;66.10;;;;;;5086331;28;20028;-69
2021/08/03 09:32:44;;;;;;;1.02;0.50;;;19.70;65.50;;;;;;5085419;28;20024;-69
2021/08/03 09:35:13;;;;;;;2.22;0.65;;;19.60;66.80;;;;;;5087684;28;20024;-69
2021/08/03 09:37:40;;;;;;;2.08;0.60;;;19.30;67.80;;;;;;5087164;28;20310;-69
2021/08/03 09:40:18;;;;;;;1.25;0.50;;;19.30;68.60;;;;;;5085760;28;20533;-69
2021/08/03 09:42:44;;;;;;;1.63;0.63;;;19.00;67.60;;;;;;5084291;28;20024;-69
2021/08/03 09:45:10;;;;;;;0.40;0.40;;;19.50;68.10;;;;;;5088097;28;20024;-70
2021/08/03 09:47:37;;;;;;;1.40;0.40;;;19.30;67.70;;;;;;5086367;28;20032;-69
2021/08/03 09:50:12;;;;;;;2.05;0.65;;;19.20;68.30;;;;;;5085751;28;20103;-69
2021/08/03 09:52:40;;;;;;;0.85;0.52;;;19.30;68.60;;;;;;5087410;28;20492;-69
2021/08/03 09:55:11;;;;;;;2.53;0.70;;;19.30;67.10;;;;;;5088461;28;20689;-69
2021/08/03 09:57:37;;;;;;;1.50;0.60;;;19.20;64.40;;;;;;5086584;28;20020;-69
2021/08/03 10:00:27;;;;;;;1.58;0.60;;;19.40;67.10;;;;;;5084414;28;20032;-69
2021/08/03 10:02:54;;;;;;;0.88;0.45;;;19.40;67.50;;;;;;5065004;28;20028;-69
2021/08/03 10:05:20;;;;;;;3.63;0.60;;;19.60;67.40;;;;;;5087606;28;20020;-69
2021/08/03 10:07:46;;;;;;;2.17;0.52;;;19.80;67.10;;;;;;5087411;28;20618;-69
2021/08/03 10:10:13;;;;;;;0.40;0.30;;;19.80;66.80;;;;;;5087982;28;20028;-69
2021/08/03 10:12:39;;;;;;;2.65;0.60;;;19.80;65.80;;;;;;5086387;28;20028;-69
2021/08/03 10:15:08;;;;;;;1.40;0.50;;;19.90;65.00;;;;;;5087217;28;20031;-69
2021/08/03 10:17:34;;;;;;;17.33;1.67;;;19.90;63.90;;;;;;5084908;28;20047;-69
2021/08/03 10:20:00;;;;;;;7.45;0.70;;;20.00;63.50;;;;;;5086720;28;20089;-69
2021/08/03 10:22:26;;;;;;;2.33;0.50;;;20.10;62.80;;;;;;5084081;28;20450;-68
2021/08/03 10:24:51;;;;;;;0.60;0.50;;;20.20;62.70;;;;;;5086001;28;20024;-69
2021/08/03 10:27:17;;;;;;;1.48;0.60;;;20.40;62.50;;;;;;5085255;28;20099;-69
2021/08/03 10:29:51;;;;;;;1.80;0.50;;;20.20;61.20;;;;;;5086942;28;20032;-69
2021/08/03 10:32:37;;;;;;;1.20;0.47;;;20.40;61.20;;;;;;5083551;28;20035;-69
2021/08/03 10:35:04;;;;;;;1.17;0.50;;;20.10;60.30;;;;;;5085231;28;20028;-69
2021/08/03 10:38:04;;;;;;;1.10;0.45;;;20.20;62.20;;;;;;5087656;28;20028;-69
2021/08/03 10:40:48;;;;;;;0.27;0.20;;;20.60;61.50;;;;;;5087186;28;20109;-69
2021/08/03 10:43:27;;;;;;;1.27;0.35;;;20.80;57.70;;;;;;5085501;28;20103;-69
2021/08/03 10:46:07;;;;;;;2.08;0.50;;;21.30;56.80;;;;;;5086036;28;20024;-69
2021/08/03 10:48:39;;;;;;;0.88;0.50;;;21.50;57.70;;;;;;5086510;28;20082;-70
2021/08/03 10:51:17;;;;;;;1.67;0.45;;;21.30;57.60;;;;;;5081330;28;20050;-69
2021/08/03 10:53:57;;;;;;;0.85;0.40;;;21.60;56.90;;;;;;5083088;28;20016;-70
2021/08/03 10:56:23;;;;;;;0.68;0.43;;;21.50;58.40;;;;;;5079450;28;20028;-70
2021/08/03 10:58:48;;;;;;;0.88;0.38;;;21.90;58.30;;;;;;5085336;28;20032;-70
2021/08/03 11:01:44;;;;;;;0.60;0.40;;;22.50;54.80;;;;;;5085628;28;20032;-70
2021/08/03 11:04:46;;;;;;;0.35;0.22;;;22.50;49.70;;;;;;5077630;28;20032;-70
2021/08/03 11:07:27;;;;;;;0.52;0.30;;;23.00;47.80;;;;;;5087026;28;20028;-70
2021/08/03 11:09:54;;;;;;;0.98;0.30;;;23.40;46.20;;;;;;5080406;28;20028;-70
2021/08/03 11:12:45;;;;;;;1.48;0.55;;;23.20;48.00;;;;;;5079789;28;20032;-70
2021/08/03 11:15:22;;;;;;;1.75;0.30;;;23.10;48.80;;;;;;5084443;28;20072;-70
2021/08/03 11:17:54;;;;;;;1.27;0.40;;;22.80;49.10;;;;;;5084168;28;20028;-70
2021/08/03 11:20:37;;;;;;;0.32;0.20;;;22.70;49.40;;;;;;5086521;28;20052;-69
2021/08/03 11:23:06;;;;;;;1.60;0.50;;;22.00;50.50;;;;;;5085363;28;20031;-70
2021/08/03 11:25:33;;;;;;;0.98;0.45;;;22.50;53.10;;;;;;5083871;28;20428;-69
2021/08/03 11:28:16;;;;;;;1.00;0.50;;;22.20;50.30;;;;;;5082528;28;20106;-70
2021/08/03 11:30:43;;;;;;;1.77;0.30;;;22.20;51.30;;;;;;5086902;28;20028;-69
2021/08/03 11:33:11;;;;;;;1.27;0.50;;;21.90;50.10;;;;;;5085929;28;20030;-70
2021/08/03 11:35:37;;;;;;;1.15;0.43;;;22.50;49.00;;;;;;5063435;28;20074;-69
2021/08/03 11:38:04;;;;;;;1.10;0.40;;;22.60;49.10;;;;;;5076805;28;20032;-69
2021/08/03 11:40:30;;;;;;;1.20;0.50;;;22.00;50.10;;;;;;5084576;28;20107;-70
2021/08/03 11:42:57;;;;;;;0.55;0.40;;;21.90;49.00;;;;;;5086597;28;20492;-70
2021/08/03 11:45:24;;;;;;;0.47;0.47;;;22.00;47.00;;;;;;5078501;28;20040;-71
2021/08/03 11:47:52;;;;;;;1.02;0.80;;;22.00;48.80;;;;;;5079266;28;20400;-70
2021/08/03 11:50:27;;;;;;;1.02;0.52;;;21.90;51.20;;;;;;5084285;28;20472;-69
2021/08/03 11:52:53;;;;;;;1.25;0.40;;;21.80;48.90;;;;;;5081278;28;20028;-68
2021/08/03 11:55:18;;;;;;;1.08;0.40;;;21.50;53.40;;;;;;5082556;28;20035;-69
2021/08/03 11:57:47;;;;;;;1.42;0.63;;;21.30;54.90;;;;;;5079393;28;20476;-68
2021/08/03 12:00:15;;;;;;;1.15;0.60;;;21.10;55.70;;;;;;5085629;28;20042;-69
2021/08/03 12:02:42;;;;;;;2.28;0.50;;;21.00;53.90;;;;;;5088433;28;20059;-69
2021/08/03 12:05:13;;;;;;;1.35;0.50;;;20.60;56.60;;;;;;5088837;28;20121;-69
2021/08/03 12:07:46;;;;;;;2.67;0.80;;;20.50;58.00;;;;;;5089120;28;20039;-69
2021/08/03 12:10:12;;;;;;;1.05;0.60;;;20.30;56.80;;;;;;5090403;28;20028;-68
2021/08/03 12:12:42;;;;;;;2.92;0.68;;;20.20;57.60;;;;;;5080361;28;20020;-69
2021/08/03 12:15:09;;;;;;;;;;;20.20;58.40;;;;;;5090983;28;20038;-69
2021/08/03 12:17:37;;;;;;;0.43;0.40;;;20.20;58.40;;;;;;5088012;28;19961;-68
2021/08/03 12:20:25;;;;;;;1.40;0.65;;;20.30;58.10;;;;;;5087905;28;20039;-69
2021/08/03 12:22:51;;;;;;;1.60;0.60;;;20.30;57.50;;;;;;5087787;28;20387;-68
2021/08/03 12:25:20;;;;;;;2.25;0.50;;;20.40;58.80;;;;;;5090436;28;20032;-69
2021/08/03 12:27:47;;;;;;;0.88;0.40;;;20.30;59.40;;;;;;5078060;28;20558;-69
2021/08/03 12:30:34;;;;;;;2.60;0.70;;;20.40;58.60;;;;;;5089541;28;20089;-68
2021/08/03 12:32:59;;;;;;;0.95;0.50;;;20.30;58.30;;;;;;5088178;28;20024;-68
2021/08/03 12:35:25;;;;;;;0.68;0.50;;;20.30;58.70;;;;;;5089038;28;20039;-69
2021/08/03 12:37:51;;;;;;;2.17;0.80;;;20.50;58.00;;;;;;5089815;28;20036;-69
2021/08/03 12:40:33;;;;;;;1.23;0.60;;;20.70;57.80;;;;;;5089929;28;20028;-68
2021/08/03 12:42:59;;;;;;;4.13;0.60;;;21.30;56.90;;;;;;5088019;28;20595;-69
2021/08/03 12:45:26;;;;;;;1.48;0.70;;;21.80;56.10;;;;;;5087737;28;20515;-69
2021/08/03 12:47:57;;;;;;;0.57;0.50;;;21.90;55.20;;;;;;5088268;28;20021;-69
2021/08/03 12:50:24;;;;;;;2.00;0.68;;;22.40;53.00;;;;;;5086979;28;20035;-70
2021/08/03 12:52:53;;;;;;;2.55;0.68;;;22.40;49.60;;;;;;5088437;28;20024;-70
2021/08/03 12:55:56;;;;;;;2.63;0.60;;;22.70;49.90;;;;;;5085097;28;20027;-70